createdAt,value
2023-02-04T00:01:46.659Z,100464.27
2023-02-04T00:04:15.321Z,100460.84
2023-02-04T00:06:44.811Z,100458.05
2023-02-04T00:09:15.857Z,100453.34
2023-02-04T00:11:45.004Z,100450.88
2023-02-04T00:14:13.376Z,100445.93
2023-02-04T00:16:42.114Z,100430.66
2023-02-04T00:19:11.674Z,100420.02
2023-02-04T00:21:40.352Z,100412.52
2023-02-04T00:24:09.493Z,100409.88
2023-02-04T00:26:38.158Z,100401.81
2023-02-04T00:29:06.691Z,100397.82
2023-02-04T00:31:35.362Z,100390.06
2023-02-04T00:34:04.006Z,100388.39
2023-02-04T00:36:32.525Z,100393.36
2023-02-04T00:39:11.630Z,100391.38
2023-02-04T00:41:43.668Z,100386.09
2023-02-04T00:44:46.731Z,100381.14
2023-02-04T00:51:06.149Z,100377.48
2023-02-04T00:59:33.358Z,100364.55
2023-02-04T01:02:01.973Z,100353.63
2023-02-04T01:04:30.504Z,100349.96
2023-02-04T01:06:59.297Z,100344.89
2023-02-04T01:09:27.916Z,100340.06
2023-02-04T01:11:56.858Z,100331.67
2023-02-04T01:14:25.718Z,100325.96
2023-02-04T01:16:54.297Z,100324.42
2023-02-04T01:19:22.876Z,100319.45
2023-02-04T01:21:51.626Z,100312.30
2023-02-04T01:24:20.241Z,100301.45
2023-02-04T01:26:48.862Z,100301.36
2023-02-04T01:29:17.636Z,100300.77
2023-02-04T01:31:46.395Z,100296.92
2023-02-04T01:34:15.179Z,100293.98
2023-02-04T01:36:43.914Z,100290.98
2023-02-04T01:39:13.173Z,100287.48
2023-02-04T01:41:41.509Z,100287.23
2023-02-04T01:44:10.644Z,100279.96
2023-02-04T01:46:39.507Z,100276.75
2023-02-04T01:49:09.344Z,100269.33
2023-02-04T01:51:37.987Z,100266.46
2023-02-04T01:54:06.793Z,100268.81
2023-02-04T01:56:35.504Z,100263.83
2023-02-04T01:59:10.801Z,100264.65
2023-02-04T02:01:41.278Z,100264.35
2023-02-04T02:04:10.192Z,100259.34
2023-02-04T02:06:39.526Z,100260.04
2023-02-04T02:09:08.030Z,100260.27
2023-02-04T02:11:36.660Z,100261.80
2023-02-04T02:14:05.418Z,100261.86
2023-02-04T02:16:34.243Z,100261.44
2023-02-04T02:19:03.040Z,100264.86
2023-02-04T02:21:33.321Z,100256.88
2023-02-04T02:24:05.306Z,100255.48
2023-02-04T02:26:34.100Z,100257.36
2023-02-04T02:29:02.826Z,100259.63
2023-02-04T02:31:31.453Z,100252.80
2023-02-04T02:34:00.067Z,100249.64
2023-02-04T02:36:28.751Z,100249.26
2023-02-04T02:38:59.588Z,100246.87
2023-02-04T02:41:28.413Z,100240.80
2023-02-04T02:43:57.039Z,100237.34
2023-02-04T02:46:25.754Z,100229.11
2023-02-04T02:48:54.413Z,100220.24
2023-02-04T02:51:23.353Z,100219.30
2023-02-04T02:53:51.913Z,100210.88
2023-02-04T02:56:20.512Z,100205.67
2023-02-04T02:58:49.191Z,100202.39
2023-02-04T03:01:17.719Z,100201.37
2023-02-04T03:03:47.572Z,100198.49
2023-02-04T03:06:16.796Z,100191.02
2023-02-04T03:08:45.211Z,100186.16
2023-02-04T03:11:13.780Z,100180.63
2023-02-04T03:13:42.574Z,100176.48
2023-02-04T03:16:11.359Z,100175.44
2023-02-04T03:18:40.049Z,100169.55
2023-02-04T03:21:08.552Z,100164.76
2023-02-04T03:23:37.077Z,100161.75
2023-02-04T03:26:05.716Z,100158.62
2023-02-04T03:28:38.973Z,100157.23
2023-02-04T03:31:07.750Z,100154.31
2023-02-04T03:33:36.287Z,100150.98
2023-02-04T03:36:05.105Z,100149.33
2023-02-04T03:38:33.820Z,100142.28
2023-02-04T03:41:02.647Z,100144.52
2023-02-04T03:43:33.747Z,100139.29
2023-02-04T03:46:02.813Z,100137.63
2023-02-04T03:48:31.188Z,100143.63
2023-02-04T03:50:59.784Z,100142.84
2023-02-04T03:53:28.534Z,100137.83
2023-02-04T03:55:57.153Z,100142.81
2023-02-04T03:58:25.596Z,100143.23
2023-02-04T04:00:53.921Z,100138.64
2023-02-04T04:03:22.552Z,100131.18
2023-02-04T04:05:51.442Z,100128.77
2023-02-04T04:08:20.042Z,100126.81
2023-02-04T04:10:48.594Z,100125.77
2023-02-04T04:13:17.139Z,100121.73
2023-02-04T04:15:45.820Z,100120.97
2023-02-04T04:18:14.726Z,100117.55
2023-02-04T04:20:43.527Z,100116.08
2023-02-04T04:23:12.194Z,100119.65
2023-02-04T04:25:40.594Z,100116.30
2023-02-04T04:28:09.132Z,100114.45
2023-02-04T04:30:38.083Z,100114.73
2023-02-04T04:33:07.019Z,100113.36
2023-02-04T04:35:35.461Z,100116.24
2023-02-04T04:38:04.463Z,100112.63
2023-02-04T04:40:33.598Z,100107.58
2023-02-04T04:43:02.521Z,100107.38
2023-02-04T04:45:31.171Z,100105.25
2023-02-04T04:47:59.687Z,100107.80
2023-02-04T04:50:28.176Z,100108.56
2023-02-04T04:52:56.869Z,100109.08
2023-02-04T04:55:25.723Z,100108.57
2023-02-04T04:57:54.344Z,100115.60
2023-02-04T05:00:23.274Z,100113.10
2023-02-04T05:02:51.753Z,100115.34
2023-02-04T05:05:20.419Z,100115.73
2023-02-04T05:07:49.027Z,100111.82
2023-02-04T05:10:17.884Z,100111.46
2023-02-04T05:12:46.294Z,100117.45
2023-02-04T05:15:15.065Z,100114.71
2023-02-04T05:17:43.663Z,100109.30
2023-02-04T05:20:12.838Z,100112.04
2023-02-04T05:22:41.596Z,100112.38
2023-02-04T05:25:10.764Z,100109.84
2023-02-04T05:27:39.358Z,100115.68
2023-02-04T05:30:09.636Z,100116.05
2023-02-04T05:32:38.345Z,100115.75
2023-02-04T05:35:07.516Z,100116.90
2023-02-04T05:37:36.034Z,100115.95
2023-02-04T05:40:05.626Z,100118.02
2023-02-04T05:42:34.404Z,100117.40
2023-02-04T05:45:03.416Z,100116.87
2023-02-04T05:47:32.060Z,100117.38
2023-02-04T05:50:00.637Z,100117.62
2023-02-04T05:52:29.533Z,100119.16
2023-02-04T05:54:58.240Z,100118.61
2023-02-04T05:57:26.965Z,100115.70
2023-02-04T05:59:55.877Z,100113.22
2023-02-04T06:02:24.306Z,100112.42
2023-02-04T06:04:52.936Z,100111.70
2023-02-04T06:07:21.668Z,100113.35
2023-02-04T06:09:50.568Z,100110.27
2023-02-04T06:12:19.563Z,100114.70
2023-02-04T06:14:48.193Z,100118.89
2023-02-04T06:17:16.687Z,100116.70
2023-02-04T06:19:45.320Z,100111.80
2023-02-04T06:22:14.147Z,100110.63
2023-02-04T06:24:42.911Z,100108.98
2023-02-04T06:27:11.470Z,100114.48
2023-02-04T06:29:39.927Z,100118.95
2023-02-04T06:32:08.704Z,100120.38
2023-02-04T06:34:37.585Z,100121.66
2023-02-04T06:37:06.235Z,100120.46
2023-02-04T06:39:34.697Z,100123.25
2023-02-04T06:42:03.260Z,100122.59
2023-02-04T06:44:35.355Z,100124.87
2023-02-04T06:47:03.892Z,100125.28
2023-02-04T06:49:32.414Z,100125.16
2023-02-04T06:52:00.980Z,100122.52
2023-02-04T06:54:29.653Z,100128.67
2023-02-04T06:57:05.977Z,100131.70
2023-02-04T06:59:34.982Z,100130.58
2023-02-04T07:02:03.649Z,100131.63
2023-02-04T07:04:32.265Z,100130.42
2023-02-04T07:07:00.752Z,100133.57
2023-02-04T07:09:29.598Z,100138.52
2023-02-04T07:12:21.442Z,100140.63
2023-02-04T07:14:56.276Z,100141.23
2023-02-04T07:17:25.022Z,100136.39
2023-02-04T07:19:53.897Z,100134.17
2023-02-04T07:22:22.660Z,100135.80
2023-02-04T07:24:51.656Z,100138.92
2023-02-04T07:27:20.809Z,100141.68
2023-02-04T07:29:52.110Z,100144.72
2023-02-04T07:32:21.095Z,100145.85
2023-02-04T07:34:49.957Z,100145.88
2023-02-04T07:37:20.032Z,100144.07
2023-02-04T07:39:48.840Z,100142.95
2023-02-04T07:42:17.486Z,100138.10
2023-02-04T07:44:46.121Z,100135.13
2023-02-04T07:47:14.935Z,100135.45
2023-02-04T07:49:43.941Z,100131.40
2023-02-04T07:52:12.921Z,100131.77
2023-02-04T07:54:42.424Z,100127.13
2023-02-04T07:57:11.246Z,100124.64
2023-02-04T07:59:40.173Z,100123.67
2023-02-04T08:02:09.953Z,100124.47
2023-02-04T08:04:39.433Z,100126.00
2023-02-04T08:07:13.961Z,100124.69
2023-02-04T08:09:53.296Z,100126.98
2023-02-04T08:12:22.265Z,100125.84
2023-02-04T08:14:51.736Z,100128.41
2023-02-04T08:17:21.135Z,100130.86
2023-02-04T08:19:50.224Z,100129.42
2023-02-04T08:22:19.077Z,100131.48
2023-02-04T08:24:50.983Z,100136.02
2023-02-04T08:27:20.862Z,100142.05
2023-02-04T08:29:49.807Z,100144.36
2023-02-04T08:32:18.734Z,100146.65
2023-02-04T08:34:49.197Z,100147.44
2023-02-04T08:37:24.361Z,100152.96
2023-02-04T08:39:53.460Z,100157.41
2023-02-04T08:42:22.551Z,100161.64
2023-02-04T08:44:51.545Z,100160.84
2023-02-04T08:47:20.087Z,100166.16
2023-02-04T08:49:48.844Z,100168.46
2023-02-04T08:52:18.460Z,100170.89
2023-02-04T08:54:47.691Z,100172.45
2023-02-04T08:57:16.588Z,100170.34
2023-02-04T08:59:45.339Z,100168.31
2023-02-04T09:02:14.323Z,100170.20
2023-02-04T09:04:43.570Z,100170.91
2023-02-04T09:07:12.681Z,100175.52
2023-02-04T09:09:41.468Z,100176.23
2023-02-04T09:12:10.334Z,100176.17
2023-02-04T09:14:39.300Z,100174.65
2023-02-04T09:17:08.158Z,100175.03
2023-02-04T09:19:36.858Z,100170.81
2023-02-04T09:22:05.897Z,100171.16
2023-02-04T09:24:34.809Z,100166.90
2023-02-04T09:27:03.806Z,100164.95
2023-02-04T09:29:32.818Z,100166.71
2023-02-04T09:32:01.757Z,100168.90
2023-02-04T09:34:30.616Z,100165.99
2023-02-04T09:36:59.131Z,100164.63
2023-02-04T09:39:28.350Z,100163.48
2023-02-04T09:41:57.088Z,100159.71
2023-02-04T09:44:26.665Z,100158.73
2023-02-04T09:46:56.290Z,100158.92
2023-02-04T09:49:25.504Z,100154.44
2023-02-04T09:51:54.233Z,100151.98
2023-02-04T09:54:23.741Z,100152.13
2023-02-04T09:56:52.896Z,100150.98
2023-02-04T09:59:22.192Z,100150.23
2023-02-04T10:01:52.568Z,100151.05
2023-02-04T10:04:21.198Z,100152.11
2023-02-04T10:09:37.655Z,100165.41
2023-02-04T10:12:06.762Z,100168.93
2023-02-04T10:14:37.126Z,100167.59
2023-02-04T10:17:05.588Z,100164.73
2023-02-04T10:19:34.276Z,100164.09
2023-02-04T10:22:03.780Z,100165.98
2023-02-04T10:24:34.112Z,100168.00
2023-02-04T10:27:09.016Z,100170.35
2023-02-04T10:29:37.678Z,100169.18
2023-02-04T10:32:07.514Z,100173.39
2023-02-04T10:34:39.642Z,100172.80
2023-02-04T10:37:40.621Z,100173.36
2023-02-04T10:40:24.341Z,100172.52
2023-02-04T10:42:55.268Z,100171.28
2023-02-04T10:46:00.284Z,100170.56
2023-02-04T10:48:40.495Z,100159.80
2023-02-04T10:51:26.538Z,100154.75
2023-02-04T10:57:52.130Z,100144.60
2023-02-04T11:00:29.468Z,100145.80
2023-02-04T11:03:18.322Z,100150.77
2023-02-04T11:05:48.967Z,100150.31
2023-02-04T11:08:20.063Z,100148.87
2023-02-04T11:10:50.557Z,100150.10
2023-02-04T11:13:23.370Z,100142.80
2023-02-04T11:16:07.769Z,100140.54
2023-02-04T11:19:08.359Z,100141.20
2023-02-04T11:21:45.320Z,100143.11
2023-02-04T11:24:25.981Z,100142.89
2023-02-04T11:27:05.355Z,100143.71
2023-02-04T11:29:36.365Z,100140.23
2023-02-04T11:32:06.371Z,100140.70
2023-02-04T11:34:45.823Z,100145.70
2023-02-04T11:37:16.049Z,100146.38
2023-02-04T11:39:45.178Z,100146.48
2023-02-04T11:42:17.623Z,100149.58
2023-02-04T11:44:49.574Z,100149.11
2023-02-04T11:47:18.304Z,100150.81
2023-02-04T11:49:48.115Z,100152.79
2023-02-04T11:52:17.049Z,100154.16
2023-02-04T11:54:53.311Z,100154.64
2023-02-04T11:57:22.390Z,100157.94
2023-02-04T11:59:51.123Z,100158.52
2023-02-04T12:02:21.062Z,100158.16
2023-02-04T12:04:58.001Z,100156.23
2023-02-04T12:07:28.476Z,100159.30
2023-02-04T12:09:59.727Z,100158.96
2023-02-04T12:12:29.706Z,100161.40
2023-02-04T12:15:01.849Z,100161.36
2023-02-04T12:17:30.718Z,100164.42
2023-02-04T12:20:03.027Z,100165.70
2023-02-04T12:22:32.611Z,100168.52
2023-02-04T12:25:02.583Z,100170.38
2023-02-04T12:27:32.648Z,100172.78
2023-02-04T12:30:02.271Z,100173.88
2023-02-04T12:32:33.620Z,100177.45
2023-02-04T12:35:24.654Z,100186.09
2023-02-04T12:37:55.897Z,100185.23
2023-02-04T12:40:25.153Z,100188.05
2023-02-04T12:42:53.924Z,100195.89
2023-02-04T12:45:22.947Z,100202.14
2023-02-04T12:47:51.883Z,100203.91
2023-02-04T12:50:22.048Z,100214.05
2023-02-04T12:52:52.101Z,100216.71
2023-02-04T12:55:21.913Z,100226.74
2023-02-04T12:57:53.140Z,100228.36
2023-02-04T13:00:25.305Z,100232.96
2023-02-04T13:02:56.986Z,100233.20
2023-02-04T13:05:26.908Z,100234.40
2023-02-04T13:07:56.940Z,100241.86
2023-02-04T13:10:36.229Z,100247.13
2023-02-04T13:13:18.598Z,100248.85
2023-02-04T13:15:57.641Z,100251.05
2023-02-04T13:18:47.310Z,100254.41
2023-02-04T13:22:03.282Z,100261.67
2023-02-04T13:24:34.756Z,100263.24
2023-02-04T13:27:27.138Z,100265.03
2023-02-04T13:33:54.996Z,100282.64
2023-02-04T13:36:39.439Z,100292.08
2023-02-04T13:39:08.748Z,100297.42
2023-02-04T13:41:39.161Z,100297.56
2023-02-04T13:44:11.749Z,100301.88
2023-02-04T13:46:43.120Z,100306.00
2023-02-04T13:49:19.045Z,100312.08
2023-02-04T13:54:56.176Z,100324.65
2023-02-04T13:57:26.606Z,100328.92
2023-02-04T14:00:05.354Z,100332.29
2023-02-04T14:03:07.150Z,100341.02
2023-02-04T14:05:37.235Z,100344.54
2023-02-04T14:08:05.954Z,100351.14
2023-02-04T14:10:38.204Z,100353.58
2023-02-04T14:13:07.485Z,100362.05
2023-02-04T14:15:37.386Z,100364.02
2023-02-04T14:18:06.649Z,100367.33
2023-02-04T14:20:45.459Z,100372.52
2023-02-04T14:23:14.193Z,100378.03
2023-02-04T14:25:42.979Z,100382.57
2023-02-04T14:28:11.853Z,100382.95
2023-02-04T14:30:43.601Z,100387.62
2023-02-04T14:33:14.616Z,100388.84
2023-02-04T14:35:45.178Z,100390.95
2023-02-04T14:38:18.141Z,100393.02
2023-02-04T14:40:47.060Z,100399.58
2023-02-04T14:43:15.808Z,100396.67
2023-02-04T14:45:45.050Z,100397.90
2023-02-04T14:48:13.695Z,100401.92
2023-02-04T14:50:42.364Z,100401.70
2023-02-04T14:53:11.206Z,100407.35
2023-02-04T14:55:40.043Z,100413.67
2023-02-04T14:58:08.502Z,100416.80
2023-02-04T15:00:37.209Z,100421.30
2023-02-04T15:03:05.972Z,100423.09
2023-02-04T15:05:34.703Z,100426.23
2023-02-04T15:08:04.236Z,100426.42
2023-02-04T15:10:33.135Z,100426.67
2023-02-04T15:13:02.099Z,100427.90
2023-02-04T15:15:30.787Z,100433.51
2023-02-04T15:17:59.564Z,100439.48
2023-02-04T15:20:28.322Z,100442.64
2023-02-04T15:22:58.567Z,100452.09
2023-02-04T15:25:28.442Z,100455.05
2023-02-04T15:27:57.408Z,100465.74
2023-02-04T15:30:26.322Z,100468.29
2023-02-04T15:32:55.327Z,100470.90
2023-02-04T15:35:23.847Z,100477.59
2023-02-04T15:37:52.595Z,100479.16
2023-02-04T15:40:21.376Z,100482.84
2023-02-04T15:42:52.409Z,100488.84
2023-02-04T15:45:21.325Z,100488.34
2023-02-04T15:47:50.095Z,100487.05
2023-02-04T15:50:18.882Z,100493.79
2023-02-04T15:52:47.630Z,100500.66
2023-02-04T15:55:16.632Z,100500.79
2023-02-04T15:57:45.384Z,100507.67
2023-02-04T16:00:15.104Z,100513.05
2023-02-04T16:02:43.769Z,100515.65
2023-02-04T16:05:12.549Z,100524.92
2023-02-04T16:07:41.605Z,100530.23
2023-02-04T16:10:10.675Z,100533.56
2023-02-04T16:12:39.775Z,100538.98
2023-02-04T16:15:12.491Z,100545.95
2023-02-04T16:17:43.625Z,100551.09
2023-02-04T16:20:13.165Z,100552.50
2023-02-04T16:22:44.483Z,100559.01
2023-02-04T16:25:36.231Z,100566.88
2023-02-04T16:28:21.046Z,100573.71
2023-02-04T16:30:58.202Z,100578.06
2023-02-04T16:33:28.825Z,100582.38
2023-02-04T16:36:07.209Z,100584.13
2023-02-04T16:38:45.298Z,100589.73
2023-02-04T16:41:31.260Z,100591.16
2023-02-04T16:47:19.373Z,100596.63
2023-02-04T16:50:37.424Z,100597.39
2023-02-04T16:54:01.265Z,100604.40
2023-02-04T16:57:06.688Z,100615.04
2023-02-04T16:59:42.150Z,100622.20
2023-02-04T17:02:17.124Z,100626.00
2023-02-04T17:04:49.741Z,100623.77
2023-02-04T17:07:23.916Z,100630.24
2023-02-04T17:09:56.077Z,100631.90
2023-02-04T17:12:33.898Z,100632.21
2023-02-04T17:15:15.458Z,100631.59
2023-02-04T17:17:46.718Z,100635.80
2023-02-04T17:20:16.664Z,100638.05
2023-02-04T17:22:45.938Z,100635.73
2023-02-04T17:25:14.914Z,100638.50
2023-02-04T17:27:44.092Z,100641.23
2023-02-04T17:30:14.454Z,100644.23
2023-02-04T17:32:45.492Z,100645.27
2023-02-04T17:35:17.041Z,100648.09
2023-02-04T17:38:08.957Z,100645.57
2023-02-04T17:41:01.933Z,100644.63
2023-02-04T17:44:05.421Z,100648.27
2023-02-04T17:46:36.680Z,100647.34
2023-02-04T17:49:06.060Z,100652.77
2023-02-04T17:51:35.284Z,100647.27
2023-02-04T17:54:04.718Z,100654.93
2023-02-04T17:56:34.049Z,100658.79
2023-02-04T17:59:02.786Z,100659.23
2023-02-04T18:01:32.054Z,100662.86
2023-02-04T18:04:01.606Z,100664.98
2023-02-04T18:06:30.392Z,100666.73
2023-02-04T18:09:01.663Z,100666.84
2023-02-04T18:11:32.116Z,100668.27
2023-02-04T18:14:01.588Z,100673.83
2023-02-04T18:16:30.927Z,100675.92
2023-02-04T18:19:02.042Z,100682.55
2023-02-04T18:21:31.986Z,100686.70
2023-02-04T18:24:03.225Z,100688.55
2023-02-04T18:26:31.698Z,100694.38
2023-02-04T18:29:00.377Z,100693.70
2023-02-04T18:31:34.074Z,100698.38
2023-02-04T18:34:08.347Z,100702.34
2023-02-04T18:36:38.320Z,100703.64
2023-02-04T18:39:13.997Z,100708.35
2023-02-04T18:41:42.827Z,100713.02
2023-02-04T18:44:17.651Z,100712.17
2023-02-04T18:46:47.187Z,100719.84
2023-02-04T18:49:25.322Z,100721.27
2023-02-04T18:51:54.206Z,100727.56
2023-02-04T18:54:27.637Z,100725.14
2023-02-04T18:57:04.285Z,100729.34
2023-02-04T18:59:36.267Z,100729.55
2023-02-04T19:02:10.594Z,100734.06
2023-02-04T19:04:42.828Z,100735.45
2023-02-04T19:07:12.600Z,100741.98
2023-02-04T19:09:42.928Z,100746.70
2023-02-04T19:12:19.026Z,100750.26
2023-02-04T19:14:47.871Z,100748.93
2023-02-04T19:17:20.367Z,100754.11
2023-02-04T19:19:53.003Z,100758.00
2023-02-04T19:22:24.109Z,100760.34
2023-02-04T19:24:55.068Z,100758.06
2023-02-04T19:27:30.068Z,100760.27
2023-02-04T19:30:03.122Z,100765.32
2023-02-04T19:32:53.301Z,100769.10
2023-02-04T19:35:34.551Z,100770.33
2023-02-04T19:38:08.585Z,100772.84
2023-02-04T19:40:38.369Z,100781.93
2023-02-04T19:43:16.834Z,100787.89
2023-02-04T19:45:46.130Z,100794.83
2023-02-04T19:48:18.000Z,100801.58
2023-02-04T19:50:48.158Z,100808.76
2023-02-04T19:53:18.812Z,100810.07
2023-02-04T19:55:48.009Z,100813.02
2023-02-04T19:58:19.029Z,100818.17
2023-02-04T20:00:53.315Z,100820.12
2023-02-04T20:03:36.265Z,100830.33
2023-02-04T20:06:21.279Z,100843.18
2023-02-04T20:08:52.209Z,100846.18
2023-02-04T20:11:40.980Z,100851.89
2023-02-04T20:14:40.852Z,100851.27
2023-02-04T20:17:18.604Z,100852.86
2023-02-04T20:19:47.311Z,100865.73
2023-02-04T20:22:48.666Z,100865.05
2023-02-04T20:25:40.548Z,100866.99
2023-02-04T20:28:29.553Z,100869.70
2023-02-04T20:30:59.614Z,100871.15
2023-02-04T20:33:35.033Z,100876.80
2023-02-04T20:36:17.849Z,100875.35
2023-02-04T20:38:46.618Z,100880.96
2023-02-04T20:41:16.486Z,100878.42
2023-02-04T20:43:45.185Z,100884.71
2023-02-04T20:46:15.486Z,100890.04
2023-02-04T20:48:44.298Z,100885.17
2023-02-04T20:51:16.068Z,100889.46
2023-02-04T20:53:46.945Z,100894.05
2023-02-04T20:56:24.742Z,100896.54
2023-02-04T20:58:54.075Z,100899.13
2023-02-04T21:01:27.402Z,100901.64
2023-02-04T21:03:57.170Z,100904.73
2023-02-04T21:06:27.195Z,100902.64
2023-02-04T21:08:56.169Z,100898.91
2023-02-04T21:11:25.387Z,100906.05
2023-02-04T21:13:54.314Z,100904.61
2023-02-04T21:16:22.967Z,100903.45
2023-02-04T21:18:52.880Z,100912.52
2023-02-04T21:21:24.024Z,100918.47
2023-02-04T21:23:52.589Z,100917.95
2023-02-04T21:26:21.468Z,100921.17
2023-02-04T21:28:50.412Z,100923.98
2023-02-04T21:31:19.605Z,100925.08
2023-02-04T21:33:48.558Z,100929.92
2023-02-04T21:36:17.098Z,100934.99
2023-02-04T21:38:46.548Z,100944.45
2023-02-04T21:41:16.015Z,100950.02
2023-02-04T21:43:44.958Z,100952.77
2023-02-04T21:46:13.950Z,100961.45
2023-02-04T21:48:42.507Z,100966.76
2023-02-04T21:51:11.411Z,100968.57
2023-02-04T21:53:40.224Z,100967.69
2023-02-04T21:56:09.102Z,100976.71
2023-02-04T21:58:38.416Z,100974.52
2023-02-04T22:01:06.940Z,100980.00
2023-02-04T22:03:35.713Z,100990.09
2023-02-04T22:06:04.935Z,100995.30
2023-02-04T22:08:35.406Z,100995.14
2023-02-04T22:11:04.359Z,100998.89
2023-02-04T22:13:32.868Z,100993.74
2023-02-04T22:16:01.419Z,100992.23
2023-02-04T22:18:30.337Z,100990.23
2023-02-04T22:20:59.106Z,100991.42
2023-02-04T22:23:27.873Z,100997.09
2023-02-04T22:25:56.437Z,100996.45
2023-02-04T22:28:24.897Z,100996.95
2023-02-04T22:30:54.342Z,100995.21
2023-02-04T22:33:23.283Z,101002.63
2023-02-04T22:35:52.194Z,101002.53
2023-02-04T22:38:20.965Z,101005.23
2023-02-04T22:40:49.656Z,101005.44
2023-02-04T22:43:18.455Z,101010.69
2023-02-04T22:45:47.262Z,101015.95
2023-02-04T22:48:16.169Z,101017.52
2023-02-04T22:50:45.017Z,101020.39
2023-02-04T22:53:13.635Z,101013.02
2023-02-04T22:55:42.344Z,101019.85
2023-02-04T22:58:11.124Z,101024.01
2023-02-04T23:00:41.252Z,101028.69
2023-02-04T23:03:09.918Z,101032.59
2023-02-04T23:05:38.948Z,101038.73
2023-02-04T23:08:07.850Z,101041.64
2023-02-04T23:10:38.801Z,101040.38
2023-02-04T23:13:07.797Z,101040.54
2023-02-04T23:15:36.604Z,101040.44
2023-02-04T23:18:05.378Z,101037.04
2023-02-04T23:20:34.352Z,101037.34
2023-02-04T23:23:03.303Z,101042.04
2023-02-04T23:25:32.211Z,101044.77
2023-02-04T23:28:01.122Z,101049.73
2023-02-04T23:30:29.597Z,101050.55
2023-02-04T23:32:58.297Z,101053.09
2023-02-04T23:35:27.022Z,101052.23
2023-02-04T23:37:56.847Z,101058.80
2023-02-04T23:40:25.499Z,101062.06
2023-02-04T23:42:54.239Z,101071.94
2023-02-04T23:45:23.148Z,101074.54
2023-02-04T23:47:51.860Z,101076.55
2023-02-04T23:50:20.682Z,101079.04
2023-02-04T23:52:49.441Z,101081.58
2023-02-04T23:55:18.714Z,101081.68
2023-02-04T23:57:49.075Z,101084.15
